Time;durP1;ratioP1;P1;durP2;ratioP2;P2;SDS_P1;SDS_P2;PMS_P1;PMS_P2;Temp;Humidity;BMP_temperature;BMP_pressure;BME280_temperature;BME280_humidity;BME280_pressure;Samples;Min_cycle;Max_cycle;Signal;HPM_P1;HPM_P2
2023/03/19 00:02:22;;;;;;;4.90;2.90;;;;;;;-1.01;38.15;101233.84;5012252;28;20480;-52
2023/03/19 00:04:48;;;;;;;5.53;2.92;;;;;;;-1.05;38.10;101232.13;5019116;28;20428;-52
2023/03/19 00:07:15;;;;;;;8.70;3.17;;;;;;;-0.94;38.09;101224.13;5032502;28;20360;-53
2023/03/19 00:09:41;;;;;;;5.13;2.42;;;;;;;-1.07;38.00;101221.63;5032240;28;20029;-60
2023/03/19 00:12:07;;;;;;;5.53;2.83;;;;;;;-0.96;37.65;101224.13;5029153;28;20083;-54
2023/03/19 00:14:33;;;;;;;4.65;3.00;;;;;;;-1.00;38.64;101219.81;5012905;28;20026;-54
2023/03/19 00:16:58;;;;;;;7.95;2.83;;;;;;;-1.05;38.22;101221.63;5016740;28;20556;-52
2023/03/19 00:19:24;;;;;;;5.82;2.80;;;;;;;-0.97;37.85;101209.25;5015050;28;20030;-52
2023/03/19 00:21:50;;;;;;;4.38;2.65;;;;;;;-1.05;38.45;101214.59;5015993;28;20072;-51
2023/03/19 00:24:16;;;;;;;6.43;2.40;;;;;;;-1.10;38.49;101216.41;5016190;28;20026;-53
2023/03/19 00:26:42;;;;;;;7.13;2.55;;;;;;;-1.10;38.52;101211.13;5016491;28;20164;-60
2023/03/19 00:29:07;;;;;;;8.02;2.60;;;;;;;-1.07;38.42;101219.00;5015833;28;20109;-50
2023/03/19 00:31:34;;;;;;;5.70;2.50;;;;;;;-1.36;38.67;101180.72;5015732;28;20108;-53
2023/03/19 00:34:00;;;;;;;7.05;2.47;;;;;;;-1.10;38.91;101208.50;5015604;28;20060;-51
2023/03/19 00:36:27;;;;;;;3.40;2.33;;;;;;;-1.14;39.00;101204.19;5016269;28;20037;-50
2023/03/19 00:38:53;;;;;;;6.57;2.53;;;;;;;-1.16;39.12;101204.19;5015837;28;20157;-51
2023/03/19 00:41:20;;;;;;;5.68;2.72;;;;;;;-1.16;39.36;101193.66;5015692;28;20037;-52
2023/03/19 00:43:46;;;;;;;4.57;2.25;;;;;;;-1.21;39.15;101205.97;5015166;28;20528;-52
2023/03/19 00:46:13;;;;;;;5.68;2.50;;;;;;;-1.24;39.51;101197.25;5015880;28;20124;-53
2023/03/19 00:48:38;;;;;;;4.30;2.33;;;;;;;-1.22;39.87;101195.47;5015994;28;20033;-57
2023/03/19 00:51:06;;;;;;;8.40;3.00;;;;;;;-1.26;39.92;101196.41;5013973;28;20441;-56
2023/03/19 00:53:36;;;;;;;4.13;2.53;;;;;;;-1.32;39.61;101194.72;5015515;28;20126;-52
2023/03/19 00:56:01;;;;;;;5.53;2.85;;;;;;;-1.27;39.41;101199.91;5015756;28;20065;-51
2023/03/19 00:58:26;;;;;;;6.05;2.63;;;;;;;-1.33;40.29;101196.47;5016566;28;20437;-53
2023/03/19 01:00:53;;;;;;;6.00;2.85;;;;;;;-1.37;40.24;101194.75;5015195;28;20089;-54
2023/03/19 01:03:19;;;;;;;3.90;2.40;;;;;;;-1.39;40.14;101191.25;5014449;28;20357;-52
2023/03/19 01:05:47;;;;;;;3.63;2.45;;;;;;;-1.39;40.58;101200.88;5015792;28;20041;-54
2023/03/19 01:08:13;;;;;;;4.25;2.65;;;;;;;-1.45;40.38;101186.03;5015375;28;20025;-51
2023/03/19 01:10:38;;;;;;;5.28;2.85;;;;;;;-1.47;39.95;101172.06;5015016;28;20038;-57
2023/03/19 01:13:04;;;;;;;6.53;3.00;;;;;;;-1.43;40.66;101193.94;5014733;28;20042;-49
2023/03/19 01:15:29;;;;;;;5.45;3.10;;;;;;;-1.68;40.65;101147.75;5014899;28;20041;-51
2023/03/19 01:17:55;;;;;;;5.22;2.70;;;;;;;-1.52;40.60;101190.50;5014926;28;20081;-52
2023/03/19 01:20:22;;;;;;;5.90;2.58;;;;;;;-1.51;40.34;101187.00;5015820;28;20415;-52
2023/03/19 01:22:48;;;;;;;6.15;2.97;;;;;;;-1.55;41.03;101184.41;5014894;28;20049;-53
2023/03/19 01:25:15;;;;;;;8.23;2.80;;;;;;;-1.83;41.51;101145.22;5015481;28;20364;-55
2023/03/19 01:27:40;;;;;;;4.70;2.60;;;;;;;-1.64;41.58;101175.72;5014916;28;20401;-52
2023/03/19 01:30:06;;;;;;;5.07;2.70;;;;;;;-1.64;41.22;101182.72;5015023;28;20125;-53
2023/03/19 01:32:32;;;;;;;5.07;2.75;;;;;;;-1.66;41.45;101180.13;5015602;28;20033;-52
2023/03/19 01:34:58;;;;;;;5.18;2.97;;;;;;;-1.70;41.72;101178.38;5015059;28;20125;-53
2023/03/19 01:37:23;;;;;;;6.53;2.85;;;;;;;-1.71;42.11;101181.03;5014845;28;20104;-52
2023/03/19 01:39:49;;;;;;;8.70;2.70;;;;;;;-1.70;41.85;101182.75;5014583;28;20030;-52
2023/03/19 01:42:14;;;;;;;9.35;3.20;;;;;;;-1.70;41.89;101188.03;5017935;28;20084;-48
2023/03/19 01:44:40;;;;;;;7.97;2.70;;;;;;;-1.74;41.86;101168.78;5034597;28;20451;-51
2023/03/19 01:47:37;;;;;;;5.82;2.88;;;;;;;-1.62;41.65;101173.94;5034464;28;20637;-55
2023/03/19 01:50:04;;;;;;;6.00;2.45;;;;;;;-1.66;41.51;101166.09;5033076;28;20068;-50
2023/03/19 01:52:33;;;;;;;6.47;2.78;;;;;;;-1.72;41.89;101167.00;5034087;28;20041;-52
2023/03/19 01:55:01;;;;;;;3.85;2.65;;;;;;;-1.76;42.03;101162.66;5034434;28;20037;-49
2023/03/19 01:57:29;;;;;;;5.10;2.50;;;;;;;-1.79;41.95;101170.56;5033590;28;20095;-58
2023/03/19 01:59:59;;;;;;;3.92;2.03;;;;;;;-1.82;42.06;101165.34;5014164;28;20129;-50
2023/03/19 02:02:30;;;;;;;4.78;2.75;;;;;;;-1.74;42.04;101164.41;5014557;28;20025;-48
2023/03/19 02:05:07;;;;;;;4.85;2.28;;;;;;;-1.60;41.91;101163.41;5014229;28;20022;-51
2023/03/19 02:07:35;;;;;;;4.10;2.50;;;;;;;-1.72;42.00;101159.13;5014178;28;20044;-53
2023/03/19 02:10:06;;;;;;;4.57;2.30;;;;;;;-1.97;41.84;101117.31;5014357;28;20033;-53
2023/03/19 02:12:31;;;;;;;4.05;2.22;;;;;;;-1.88;42.25;101140.91;5014717;28;20100;-53
2023/03/19 02:14:57;;;;;;;3.30;2.20;;;;;;;-2.01;42.94;101113.00;4996674;28;20034;-51
2023/03/19 02:17:32;;;;;;;7.93;2.75;;;;;;;-1.84;42.72;101140.88;5013771;28;20038;-59
2023/03/19 02:20:12;;;;;;;5.85;2.60;;;;;;;-1.80;42.35;101135.59;5033038;28;20033;-51
2023/03/19 02:23:24;;;;;;;3.80;2.08;;;;;;;-1.96;42.21;101111.19;5034106;28;20891;-50
2023/03/19 02:26:01;;;;;;;6.85;2.58;;;;;;;-1.86;42.43;101124.25;5032992;28;20080;-58
2023/03/19 02:28:28;;;;;;;7.32;2.80;;;;;;;-1.91;42.46;101119.91;5033684;28;20025;-49
2023/03/19 02:30:53;;;;;;;7.65;2.60;;;;;;;-1.86;43.08;101133.00;5033896;28;20116;-54
2023/03/19 02:33:19;;;;;;;5.78;2.22;;;;;;;-1.97;43.10;101130.44;5033717;28;20413;-59
2023/03/19 02:35:50;;;;;;;6.20;2.63;;;;;;;-1.95;43.17;101136.56;5021341;28;20081;-55
2023/03/19 02:38:16;;;;;;;6.82;3.05;;;;;;;-2.19;43.32;101104.38;5012534;28;20081;-53
2023/03/19 02:40:51;;;;;;;5.95;2.55;;;;;;;-1.95;43.62;101144.44;5013909;28;20069;-53
2023/03/19 02:43:16;;;;;;;6.05;2.67;;;;;;;-2.00;43.24;101127.00;5013870;28;20109;-51
2023/03/19 02:45:42;;;;;;;5.20;3.05;;;;;;;-2.04;43.79;101134.91;5013334;28;20433;-54
2023/03/19 02:48:07;;;;;;;4.10;2.40;;;;;;;-2.06;43.52;101141.88;5013335;28;20147;-53
2023/03/19 02:50:33;;;;;;;4.55;2.53;;;;;;;-2.11;43.40;101130.56;5013659;28;20372;-54
2023/03/19 02:52:58;;;;;;;5.68;2.72;;;;;;;-2.26;44.13;101107.91;5013331;28;20129;-55
2023/03/19 02:55:24;;;;;;;6.82;2.65;;;;;;;-2.12;44.17;101128.81;5019817;28;20024;-52
2023/03/19 02:57:49;;;;;;;7.35;2.80;;;;;;;-2.17;44.37;101127.97;5032289;28;20034;-62
2023/03/19 03:00:17;;;;;;;5.47;2.85;;;;;;;-2.09;43.75;101125.31;5033359;28;20029;-54
2023/03/19 03:02:43;;;;;;;3.67;2.42;;;;;;;-2.34;44.16;101086.13;5032087;28;20025;-53
2023/03/19 03:05:09;;;;;;;5.40;3.05;;;;;;;-2.12;43.87;101106.97;5032415;28;20030;-51
2023/03/19 03:07:35;;;;;;;4.50;3.13;;;;;;;-2.02;43.59;101117.38;5032548;28;20521;-50
2023/03/19 03:10:00;;;;;;;5.50;3.30;;;;;;;-2.07;43.92;101128.78;5016236;28;20030;-53
2023/03/19 03:12:26;;;;;;;9.02;3.50;;;;;;;-2.15;44.53;101115.72;5012978;28;20029;-53
2023/03/19 03:14:51;;;;;;;11.35;4.15;;;;;;;-2.04;43.86;101107.75;5010808;28;20091;-63
2023/03/19 03:17:16;;;;;;;7.00;3.63;;;;;;;-2.02;43.61;101111.25;5012814;28;20086;-53
2023/03/19 03:19:42;;;;;;;7.97;3.58;;;;;;;-1.98;44.33;101102.47;5012080;28;20425;-52
2023/03/19 03:22:07;;;;;;;7.75;3.58;;;;;;;-2.02;43.77;101111.25;5012774;28;20029;-54
2023/03/19 03:24:33;;;;;;;7.25;3.75;;;;;;;-2.05;44.48;101109.53;5012508;28;20032;-53
2023/03/19 03:26:59;;;;;;;5.20;3.53;;;;;;;-2.11;44.05;101101.69;5012788;28;20113;-54
2023/03/19 03:29:24;;;;;;;7.18;3.55;;;;;;;-2.02;44.04;101106.88;5012646;28;20334;-51
2023/03/19 03:31:50;;;;;;;7.75;3.90;;;;;;;-2.11;43.82;101104.31;5012908;28;20463;-54
2023/03/19 03:34:16;;;;;;;7.10;3.45;;;;;;;-2.16;44.40;101111.34;5013095;28;20084;-54
2023/03/19 03:36:42;;;;;;;6.55;3.42;;;;;;;-2.13;44.22;101111.31;5012595;28;20046;-53
2023/03/19 03:39:07;;;;;;;8.55;3.33;;;;;;;-2.14;44.52;101101.72;5012479;28;20048;-55
2023/03/19 03:41:33;;;;;;;7.10;3.75;;;;;;;-2.14;43.96;101100.84;5013948;28;20041;-53
2023/03/19 03:43:58;;;;;;;7.38;3.28;;;;;;;-2.08;44.18;101111.31;5012442;28;20408;-53
2023/03/19 03:46:24;;;;;;;7.43;3.00;;;;;;;-2.08;43.75;101108.69;5011574;28;20026;-56
2023/03/19 03:48:50;;;;;;;5.35;2.97;;;;;;;-2.08;44.26;101100.81;5013047;28;20125;-53
2023/03/19 03:51:17;;;;;;;4.82;3.08;;;;;;;-2.13;44.54;101097.34;5012467;28;20033;-55
2023/03/19 03:53:43;;;;;;;7.60;3.75;;;;;;;-2.05;44.21;101106.91;5011089;28;20060;-50
2023/03/19 03:56:08;;;;;;;9.85;3.05;;;;;;;-2.17;44.32;101086.00;5012597;28;20416;-50
2023/03/19 03:58:34;;;;;;;6.43;3.35;;;;;;;-2.00;43.58;101098.97;5012811;28;20042;-50
2023/03/19 04:01:00;;;;;;;10.02;3.58;;;;;;;-2.10;44.17;101090.31;5012138;28;20061;-53
2023/03/19 04:03:25;;;;;;;4.80;3.17;;;;;;;-2.05;43.92;101095.53;5013217;28;20034;-51
2023/03/19 04:05:51;;;;;;;6.65;3.47;;;;;;;-1.94;44.48;101100.69;5012807;28;20061;-50
2023/03/19 04:08:17;;;;;;;8.15;3.22;;;;;;;-1.94;43.75;101098.06;5012758;28;20088;-53
2023/03/19 04:10:42;;;;;;;8.13;3.78;;;;;;;-1.83;44.12;101106.72;5012066;28;20036;-53
2023/03/19 04:13:09;;;;;;;8.13;3.90;;;;;;;-1.80;43.61;101105.81;5012195;28;20026;-53
2023/03/19 04:15:35;;;;;;;7.15;3.35;;;;;;;-1.79;43.86;101094.44;5012539;28;20034;-53
2023/03/19 04:18:00;;;;;;;7.07;3.58;;;;;;;-1.70;44.01;101090.84;5012570;28;20033;-54
2023/03/19 04:20:26;;;;;;;8.18;3.30;;;;;;;-0.18;41.07;101079.34;5010829;28;20037;-53
2023/03/19 04:22:51;;;;;;;8.40;3.70;;;;;;;2.29;36.35;101087.47;5022923;28;20041;-53
2023/03/19 04:25:17;;;;;;;5.15;3.22;;;;;;;4.22;32.76;101067.66;5032165;28;20037;-54
2023/03/19 04:27:43;;;;;;;6.40;3.42;;;;;;;5.50;30.52;101072.72;5032409;28;20061;-51
2023/03/19 04:30:11;;;;;;;6.53;3.55;;;;;;;6.73;28.51;101076.50;5031533;28;20033;-50
2023/03/19 04:32:37;;;;;;;9.40;4.03;;;;;;;7.67;27.23;101072.22;5031698;28;20026;-52
2023/03/19 04:35:03;;;;;;;7.57;3.72;;;;;;;8.96;25.54;101058.63;5032207;28;20105;-54
2023/03/19 04:37:29;;;;;;;7.28;3.92;;;;;;;10.23;24.23;101068.47;5031746;28;20518;-51
2023/03/19 04:39:55;;;;;;;8.43;3.90;;;;;;;11.09;22.91;101061.50;5030919;28;20038;-54
2023/03/19 04:42:20;;;;;;;9.70;4.38;;;;;;;11.66;21.83;101065.91;5031308;28;20086;-53
2023/03/19 04:44:46;;;;;;;8.05;4.18;;;;;;;12.52;20.89;101055.78;5025990;28;20053;-51
2023/03/19 04:47:11;;;;;;;8.70;4.20;;;;;;;13.13;20.40;101059.63;5012316;28;20127;-55
2023/03/19 04:49:37;;;;;;;6.30;4.30;;;;;;;13.89;19.40;101052.28;5011963;28;20034;-52
2023/03/19 04:52:03;;;;;;;7.95;4.07;;;;;;;14.57;18.44;101045.41;5011680;28;20096;-52
2023/03/19 04:54:29;;;;;;;10.23;4.28;;;;;;;15.27;17.91;101059.69;5012175;28;20404;-54
2023/03/19 04:56:54;;;;;;;6.97;4.20;;;;;;;15.26;17.64;101057.97;5012351;28;20033;-51
2023/03/19 04:59:21;;;;;;;6.82;4.30;;;;;;;15.68;17.09;101053.72;5028144;28;20117;-52
2023/03/19 05:01:46;;;;;;;9.30;4.30;;;;;;;16.57;16.32;101047.19;5032478;28;20037;-53
2023/03/19 05:04:12;;;;;;;6.43;4.00;;;;;;;17.27;15.73;101044.69;5034810;28;20044;-53
2023/03/19 05:06:38;;;;;;;5.50;3.90;;;;;;;17.89;15.15;100998.47;5032259;28;20532;-51
2023/03/19 05:09:05;;;;;;;5.68;4.00;;;;;;;19.16;14.30;101039.00;5014552;28;20105;-50
2023/03/19 05:11:31;;;;;;;7.20;4.07;;;;;;;19.59;13.55;101040.19;5014703;28;20030;-54
2023/03/19 05:13:56;;;;;;;5.93;4.22;;;;;;;19.79;13.20;101034.63;5015419;28;20330;-55
2023/03/19 05:16:22;;;;;;;8.70;4.15;;;;;;;20.13;13.12;101038.50;5015030;28;20026;-52
2023/03/19 05:18:47;;;;;;;6.60;4.30;;;;;;;20.95;12.71;101038.22;5014841;28;20034;-55
2023/03/19 05:21:14;;;;;;;6.03;4.13;;;;;;;21.96;11.75;101038.38;5015169;28;20037;-51
2023/03/19 05:23:40;;;;;;;4.95;3.42;;;;;;;22.64;11.03;101035.47;5014573;28;20373;-54
2023/03/19 05:26:07;;;;;;;5.82;3.35;;;;;;;22.64;11.23;101038.19;5014814;28;20092;-53
2023/03/19 05:28:33;;;;;;;9.65;4.20;;;;;;;23.18;10.82;101034.78;5015327;28;20074;-59
2023/03/19 05:30:58;;;;;;;5.82;3.80;;;;;;;23.87;10.56;101027.75;5032992;28;20029;-61
2023/03/19 05:33:24;;;;;;;6.43;4.35;;;;;;;24.10;10.20;101018.69;5034645;28;20025;-51
2023/03/19 05:35:50;;;;;;;5.60;3.53;;;;;;;24.32;10.00;101018.84;5033934;28;20437;-53
2023/03/19 05:38:16;;;;;;;6.05;3.72;;;;;;;24.76;9.74;101023.53;5034206;28;20625;-54
2023/03/19 05:40:41;;;;;;;7.30;4.32;;;;;;;25.15;9.48;101013.31;5030718;28;20025;-54
2023/03/19 05:43:08;;;;;;;4.15;3.75;;;;;;;25.58;9.16;101023.56;5015060;28;20434;-55
2023/03/19 05:45:34;;;;;;;6.45;3.63;;;;;;;25.70;8.79;101018.41;5045035;28;20025;-60
2023/03/19 05:48:01;;;;;;;6.45;3.85;;;;;;;25.50;9.11;101012.69;5043238;28;20048;-64
2023/03/19 05:50:26;;;;;;;4.15;3.75;;;;;;;25.88;8.90;101006.09;5043980;28;20053;-53
2023/03/19 05:52:52;;;;;;;4.88;3.63;;;;;;;26.50;8.54;100999.03;5044348;28;20060;-55
2023/03/19 05:55:17;;;;;;;7.72;4.15;;;;;;;27.25;8.39;100993.94;5037700;28;20064;-58
2023/03/19 05:57:43;;;;;;;3.90;3.40;;;;;;;27.90;7.99;100987.97;5025985;28;20052;-54
2023/03/19 06:00:10;;;;;;;4.03;3.40;;;;;;;28.11;7.99;100986.91;5053244;28;20036;-53
2023/03/19 06:02:36;;;;;;;4.43;3.60;;;;;;;28.29;7.64;100986.28;5054329;28;20127;-63
2023/03/19 06:05:02;;;;;;;4.28;3.88;;;;;;;28.34;7.25;100964.47;5044663;28;20112;-53
2023/03/19 06:07:28;;;;;;;8.23;3.33;;;;;;;28.87;7.15;100972.81;5041391;28;20041;-54
2023/03/19 06:09:54;;;;;;;5.00;3.67;;;;;;;29.39;6.91;100970.03;5042732;28;20055;-52
2023/03/19 06:12:20;;;;;;;6.18;3.90;;;;;;;29.78;6.57;100983.81;5042753;28;20883;-59
2023/03/19 06:14:46;;;;;;;5.78;3.85;;;;;;;29.69;6.72;100979.66;5038822;28;20104;-67
2023/03/19 06:17:12;;;;;;;5.70;3.53;;;;;;;29.78;6.68;100976.41;5042160;28;20025;-56
2023/03/19 06:19:38;;;;;;;8.68;4.07;;;;;;;29.62;6.41;100963.97;5043003;28;20068;-53
2023/03/19 06:22:03;;;;;;;3.90;3.25;;;;;;;29.72;6.57;100960.72;5041852;28;20356;-54
2023/03/19 06:24:29;;;;;;;7.03;3.30;;;;;;;30.27;6.36;100963.88;5041001;28;20048;-51
2023/03/19 06:26:55;;;;;;;7.22;3.55;;;;;;;30.21;6.49;100962.88;5042105;28;20419;-55
2023/03/19 06:29:20;;;;;;;6.47;4.13;;;;;;;30.72;6.25;100955.34;5041335;28;20332;-58
2023/03/19 06:31:45;;;;;;;6.25;3.65;;;;;;;31.25;6.08;100947.44;5042768;28;20025;-55
2023/03/19 06:34:11;;;;;;;5.15;3.67;;;;;;;31.50;5.81;100952.84;5041836;28;20118;-54
2023/03/19 06:36:37;;;;;;;6.28;3.65;;;;;;;31.56;5.98;100958.50;5033183;28;20479;-55
2023/03/19 06:39:02;;;;;;;5.78;3.88;;;;;;;32.14;5.61;100932.00;5033102;28;20049;-55
2023/03/19 06:41:28;;;;;;;4.15;3.75;;;;;;;33.21;5.17;100947.56;5033908;28;20038;-55
2023/03/19 06:43:54;;;;;;;6.63;3.63;;;;;;;33.60;4.75;100947.75;5032387;28;20029;-54
2023/03/19 06:46:19;;;;;;;4.82;3.38;;;;;;;33.81;4.66;100925.03;5016174;28;20523;-60
2023/03/19 06:48:45;;;;;;;7.72;3.58;;;;;;;34.47;4.56;100939.06;5013118;28;20100;-53
2023/03/19 06:51:10;;;;;;;4.22;3.78;;;;;;;34.35;4.48;100941.97;5012686;28;20120;-53
2023/03/19 06:53:36;;;;;;;6.35;3.88;;;;;;;34.47;4.33;100932.69;5012234;28;20036;-51
2023/03/19 06:56:01;;;;;;;8.43;4.07;;;;;;;34.45;4.55;100935.72;5026358;28;20112;-55
2023/03/19 06:58:27;;;;;;;5.90;3.40;;;;;;;34.80;4.53;100932.84;5032783;28;20041;-55
2023/03/19 07:00:52;;;;;;;5.20;3.70;;;;;;;35.33;4.14;100936.78;5032396;28;20060;-55
2023/03/19 07:03:18;;;;;;;4.45;3.50;;;;;;;35.77;4.12;100927.44;5032465;28;20030;-56
2023/03/19 07:05:43;;;;;;;7.47;4.00;;;;;;;36.18;3.44;100929.72;5031612;28;20474;-53
2023/03/19 07:08:10;;;;;;;8.05;3.67;;;;;;;35.96;3.93;100924.22;5015108;28;20029;-56
2023/03/19 07:10:39;;;;;;;5.78;3.90;;;;;;;36.60;3.64;100921.56;5031223;28;20033;-55
2023/03/19 07:13:05;;;;;;;4.35;3.75;;;;;;;36.36;3.91;100921.97;5032497;28;20029;-54
2023/03/19 07:15:30;;;;;;;11.05;3.60;;;;;;;36.37;3.70;100906.91;5032881;28;20357;-57
2023/03/19 07:17:56;;;;;;;7.05;3.80;;;;;;;36.41;3.11;100905.25;5035371;28;20040;-61
2023/03/19 07:20:22;;;;;;;7.47;3.80;;;;;;;35.61;3.85;100895.84;5039389;28;20057;-52
2023/03/19 07:22:50;;;;;;;11.98;3.50;;;;;;;35.29;4.16;100910.59;5041338;28;20452;-55
2023/03/19 07:25:15;;;;;;;5.85;4.00;;;;;;;34.94;4.15;100906.28;5016553;28;20096;-53
2023/03/19 07:27:41;;;;;;;6.60;3.97;;;;;;;34.86;4.12;100907.63;5019188;28;20033;-54
2023/03/19 07:30:08;;;;;;;6.43;3.80;;;;;;;34.65;4.14;100884.28;5042748;28;20037;-56
2023/03/19 07:32:34;;;;;;;7.90;3.67;;;;;;;34.86;4.21;100890.94;5052409;28;20462;-62
2023/03/19 07:35:00;;;;;;;6.57;4.18;;;;;;;34.73;4.11;100897.75;5038657;28;20053;-55
2023/03/19 07:37:26;;;;;;;8.98;4.00;;;;;;;34.72;4.08;100895.19;5038398;28;20396;-57
2023/03/19 07:39:51;;;;;;;7.75;3.90;;;;;;;34.18;4.34;100897.56;5046860;28;20032;-53
2023/03/19 07:42:17;;;;;;;8.93;4.13;;;;;;;33.28;4.92;100894.69;5043968;28;20098;-56
2023/03/19 07:44:42;;;;;;;8.70;4.28;;;;;;;32.38;5.07;100898.75;5041589;28;20040;-55
2023/03/19 07:47:08;;;;;;;6.40;4.00;;;;;;;32.13;5.42;100894.28;5042591;28;20056;-54
2023/03/19 07:49:33;;;;;;;8.95;3.88;;;;;;;32.32;5.53;100899.69;5033247;28;20128;-53
2023/03/19 07:51:58;;;;;;;5.10;3.78;;;;;;;32.43;4.85;100895.22;5031620;28;20025;-53
2023/03/19 07:54:24;;;;;;;10.63;4.30;;;;;;;32.33;5.02;100898.63;5028200;28;20103;-53
2023/03/19 07:56:50;;;;;;;12.43;4.68;;;;;;;32.26;5.35;100895.09;5012492;28;20096;-50
2023/03/19 07:59:15;;;;;;;10.73;4.10;;;;;;;31.27;5.63;100867.00;5025543;28;20080;-50
2023/03/19 08:01:41;;;;;;;11.18;4.05;;;;;;;30.03;5.91;100886.38;5031926;28;20029;-54
2023/03/19 08:04:07;;;;;;;8.13;3.83;;;;;;;27.53;7.12;100875.59;5031843;28;20045;-57
2023/03/19 08:06:33;;;;;;;6.40;3.90;;;;;;;24.31;8.68;100864.75;5032695;28;20045;-55
2023/03/19 08:08:58;;;;;;;4.55;3.47;;;;;;;21.27;10.85;100867.81;5022511;28;20034;-54
2023/03/19 08:11:24;;;;;;;11.35;4.22;;;;;;;18.83;12.79;100873.06;5012089;28;20038;-53
2023/03/19 08:13:49;;;;;;;9.80;4.70;;;;;;;16.81;14.47;100870.22;5012114;28;20030;-51
2023/03/19 08:16:15;;;;;;;7.07;4.80;;;;;;;15.16;15.62;100873.53;5012698;28;20033;-52
2023/03/19 08:18:41;;;;;;;11.20;4.50;;;;;;;13.53;17.17;100867.56;5012719;28;20037;-57
2023/03/19 08:21:07;;;;;;;12.60;5.28;;;;;;;12.20;18.90;100869.06;5011422;28;20349;-63
2023/03/19 08:23:33;;;;;;;8.18;5.30;;;;;;;11.36;19.92;100865.84;5018911;28;20030;-51
2023/03/19 08:25:59;;;;;;;6.35;5.13;;;;;;;10.56;20.82;100856.75;5031351;28;20091;-51
2023/03/19 08:28:24;;;;;;;13.13;5.63;;;;;;;9.95;21.40;100862.28;5031962;28;20033;-56
2023/03/19 08:30:50;;;;;;;11.20;5.40;;;;;;;9.50;22.35;100862.31;5013961;28;20026;-55
2023/03/19 08:33:16;;;;;;;10.57;5.57;;;;;;;8.72;23.10;100856.06;5031680;28;20029;-54
2023/03/19 08:35:41;;;;;;;6.38;5.18;;;;;;;8.37;23.67;100864.19;5030142;28;20037;-54
2023/03/19 08:38:07;;;;;;;10.75;5.72;;;;;;;8.15;24.18;100861.81;5035242;28;20053;-64
2023/03/19 08:40:32;;;;;;;9.98;5.50;;;;;;;7.94;24.54;100856.69;5035761;28;20043;-57
2023/03/19 08:42:58;;;;;;;15.00;5.20;;;;;;;7.78;25.13;100856.66;5034054;28;20080;-57
2023/03/19 08:45:24;;;;;;;11.60;5.57;;;;;;;7.60;25.57;100856.66;5035830;28;20360;-56
2023/03/19 08:47:50;;;;;;;10.07;5.15;;;;;;;7.53;25.62;100846.38;5035597;28;20061;-58
2023/03/19 08:50:16;;;;;;;12.75;6.30;;;;;;;7.31;26.33;100853.69;5034788;28;20104;-55
2023/03/19 08:52:41;;;;;;;14.18;6.40;;;;;;;6.72;26.31;100805.97;5034297;28;20064;-52
2023/03/19 08:55:08;;;;;;;11.07;5.88;;;;;;;6.78;27.41;100843.88;5030145;28;20021;-52
2023/03/19 08:57:35;;;;;;;11.60;6.00;;;;;;;6.28;28.06;100836.41;5015746;28;20057;-55
2023/03/19 09:00:01;;;;;;;12.95;6.35;;;;;;;6.24;28.49;100839.28;5015429;28;20041;-50
2023/03/19 09:02:26;;;;;;;13.50;5.57;;;;;;;6.15;28.14;100825.50;5015098;28;20034;-55
2023/03/19 09:04:52;;;;;;;12.88;6.15;;;;;;;6.15;28.56;100825.50;5015581;28;20384;-53
2023/03/19 09:07:18;;;;;;;15.93;6.20;;;;;;;6.21;28.46;100816.38;5014398;28;20037;-55
2023/03/19 09:09:44;;;;;;;11.07;5.47;;;;;;;5.99;28.99;100809.34;5015226;28;20022;-51
2023/03/19 09:12:13;;;;;;;15.55;6.18;;;;;;;5.85;29.30;100791.38;5015017;28;20030;-52
2023/03/19 09:14:39;;;;;;;10.40;5.60;;;;;;;5.95;29.40;100804.22;5016115;28;20060;-56
2023/03/19 09:17:05;;;;;;;9.95;6.07;;;;;;;5.99;29.78;100797.84;5035109;28;20063;-53
2023/03/19 09:19:30;;;;;;;9.07;4.97;;;;;;;6.11;29.53;100797.31;5034996;28;20452;-53
2023/03/19 09:21:56;;;;;;;13.23;6.00;;;;;;;6.21;29.56;100792.44;5034689;28;20025;-55
2023/03/19 09:24:21;;;;;;;10.73;5.55;;;;;;;6.27;29.27;100793.94;5033674;28;20025;-56
2023/03/19 09:26:48;;;;;;;11.00;5.43;;;;;;;6.36;29.08;100796.16;5034766;28;20032;-55
2023/03/19 09:29:14;;;;;;;12.52;5.97;;;;;;;6.45;29.32;100790.41;5034517;28;20037;-52
2023/03/19 09:31:40;;;;;;;12.32;5.90;;;;;;;6.28;29.51;100777.06;5015160;28;20372;-52
2023/03/19 09:34:07;;;;;;;8.75;4.78;;;;;;;6.22;29.90;100804.81;5015552;28;20037;-53
2023/03/19 09:36:36;;;;;;;8.93;5.78;;;;;;;6.12;30.13;100801.72;5014968;28;20045;-51
2023/03/19 09:39:04;;;;;;;11.95;5.25;;;;;;;6.07;29.82;100801.06;5030999;28;20410;-54
2023/03/19 09:41:39;;;;;;;10.43;5.05;;;;;;;6.22;29.32;100799.47;5034317;28;20034;-52
2023/03/19 09:44:05;;;;;;;10.15;5.05;;;;;;;6.18;30.04;100797.91;5034511;28;20029;-52
2023/03/19 09:46:56;;;;;;;15.48;5.03;;;;;;;6.40;28.76;100786.25;5034245;28;20177;-57
2023/03/19 09:49:31;;;;;;;11.82;5.40;;;;;;;6.21;30.73;100786.25;5033167;28;20033;-53
2023/03/19 09:52:34;;;;;;;12.48;6.40;;;;;;;6.32;29.80;100783.97;5034571;28;20041;-54
2023/03/19 09:55:22;;;;;;;14.05;5.93;;;;;;;6.39;29.73;100785.38;5033666;28;20436;-55
2023/03/19 09:57:48;;;;;;;11.88;6.00;;;;;;;6.23;30.07;100784.38;5032841;28;20124;-52
2023/03/19 10:00:23;;;;;;;8.40;5.78;;;;;;;6.33;30.36;100785.69;5031883;28;20112;-57
2023/03/19 10:02:54;;;;;;;10.15;5.88;;;;;;;6.34;30.56;100775.88;5033684;28;20036;-57
2023/03/19 10:05:52;;;;;;;11.15;6.25;;;;;;;6.44;30.98;100775.38;5033605;28;20144;-56
2023/03/19 10:08:25;;;;;;;11.23;6.45;;;;;;;6.43;31.19;100775.47;5033458;28;20116;-52
2023/03/19 10:10:59;;;;;;;15.45;6.78;;;;;;;6.46;30.50;100762.84;5034436;28;20124;-59
2023/03/19 10:13:49;;;;;;;9.43;5.97;;;;;;;6.47;30.75;100769.91;5034393;28;20357;-58
2023/03/19 10:16:22;;;;;;;13.95;5.78;;;;;;;6.48;31.25;100768.13;5033781;28;20045;-56
2023/03/19 10:18:51;;;;;;;9.50;5.82;;;;;;;6.43;30.87;100759.50;5030848;28;20045;-52
2023/03/19 10:21:48;;;;;;;11.55;6.72;;;;;;;6.44;31.01;100766.56;5013104;28;20402;-52
2023/03/19 10:24:30;;;;;;;12.50;6.30;;;;;;;6.27;31.47;100751.38;5013287;28;20080;-54
2023/03/19 10:27:00;;;;;;;11.93;6.55;;;;;;;6.15;31.71;100753.69;5013683;28;20092;-53
2023/03/19 10:29:27;;;;;;;15.52;7.00;;;;;;;6.10;32.07;100753.06;5013634;28;20452;-56
2023/03/19 10:32:03;;;;;;;13.80;6.60;;;;;;;6.13;31.94;100754.69;5014657;28;20045;-56
2023/03/19 10:34:34;;;;;;;14.63;6.70;;;;;;;6.18;32.07;100748.22;5012983;28;20037;-56
2023/03/19 10:37:13;;;;;;;11.00;6.80;;;;;;;6.16;31.85;100720.00;5026472;28;20049;-52
2023/03/19 10:39:42;;;;;;;13.52;6.90;;;;;;;6.40;31.81;100741.88;5028590;28;20456;-56
2023/03/19 10:42:44;;;;;;;11.90;6.70;;;;;;;6.63;31.06;100741.69;5013997;28;20034;-53
2023/03/19 10:45:28;;;;;;;14.45;6.72;;;;;;;6.64;31.60;100746.09;5013733;28;20038;-57
2023/03/19 10:47:55;;;;;;;10.48;6.00;;;;;;;6.62;31.21;100732.84;5013411;28;20095;-54
2023/03/19 10:50:28;;;;;;;11.48;6.60;;;;;;;6.53;31.83;100722.69;5013285;28;20030;-54
2023/03/19 10:53:17;;;;;;;21.10;7.18;;;;;;;6.60;30.54;100734.72;5013251;28;20037;-53
2023/03/19 10:56:17;;;;;;;10.65;7.00;;;;;;;6.35;31.10;100725.28;5015599;28;20437;-51
2023/03/19 10:58:56;;;;;;;11.57;6.90;;;;;;;6.17;31.42;100727.03;5025934;28;20119;-57
2023/03/19 11:01:26;;;;;;;12.00;7.38;;;;;;;5.91;32.66;100714.94;5032846;28;20083;-54
2023/03/19 11:03:56;;;;;;;10.07;7.07;;;;;;;5.87;33.15;100717.75;5032897;28;20037;-54
2023/03/19 11:06:34;;;;;;;11.60;7.03;;;;;;;6.01;32.31;100721.56;5032756;28;20097;-53
2023/03/19 11:08:59;;;;;;;13.10;6.50;;;;;;;5.67;32.66;100659.34;5031747;28;20033;-56
2023/03/19 11:11:33;;;;;;;14.13;7.47;;;;;;;6.05;32.17;100707.22;5031562;28;20044;-53
2023/03/19 11:14:06;;;;;;;12.38;7.50;;;;;;;5.98;32.19;100709.28;5032390;28;20108;-57
2023/03/19 11:16:45;;;;;;;13.98;7.13;;;;;;;5.93;32.63;100699.78;5033056;28;20068;-50
2023/03/19 11:19:31;;;;;;;16.40;7.93;;;;;;;6.01;32.46;100708.28;5016176;28;20033;-56
2023/03/19 11:22:19;;;;;;;13.30;7.45;;;;;;;6.05;32.26;100701.03;5012964;28;20034;-54
2023/03/19 11:24:52;;;;;;;14.15;7.95;;;;;;;6.09;32.13;100687.53;5013064;28;20120;-55
2023/03/19 11:27:24;;;;;;;12.82;7.30;;;;;;;6.12;33.00;100698.00;5012667;28;20030;-53
2023/03/19 11:29:50;;;;;;;12.10;7.45;;;;;;;6.18;32.69;100686.22;5013059;28;20033;-54
2023/03/19 11:32:30;;;;;;;11.30;6.72;;;;;;;6.17;33.20;100690.66;5012104;28;20510;-55